createdAt,value
2022-09-28T00:03:13.321Z,44.50
2022-09-28T00:08:18.526Z,44.95
2022-09-28T00:13:22.037Z,45.44
2022-09-28T00:18:25.580Z,45.77
2022-09-28T00:23:31.656Z,46.09
2022-09-28T00:28:35.190Z,46.37
2022-09-28T00:33:38.718Z,45.63
2022-09-28T00:38:43.957Z,46.25
2022-09-28T00:43:47.483Z,46.54
2022-09-28T00:48:56.982Z,46.10
2022-09-28T00:54:04.309Z,46.54
2022-09-28T00:59:10.344Z,46.21
2022-09-28T01:04:14.244Z,47.14
2022-09-28T01:09:20.197Z,47.56
2022-09-28T01:14:25.267Z,48.96
2022-09-28T01:19:38.485Z,49.01
2022-09-28T01:24:46.351Z,50.09
2022-09-28T01:29:57.638Z,50.32
2022-09-28T01:35:06.309Z,51.12
2022-09-28T01:40:12.676Z,51.77
2022-09-28T01:45:24.662Z,53.00
2022-09-28T01:50:31.050Z,53.83
2022-09-28T01:55:39.548Z,53.82
2022-09-28T02:00:50.154Z,54.75
2022-09-28T02:05:58.245Z,54.70
2022-09-28T02:11:05.673Z,55.40
2022-09-28T02:16:18.621Z,56.73
2022-09-28T02:21:27.505Z,56.76
2022-09-28T02:26:35.940Z,57.28
2022-09-28T02:31:41.293Z,57.53
2022-09-28T02:36:44.674Z,57.88
2022-09-28T02:41:56.371Z,59.02
2022-09-28T02:47:08.521Z,59.04
2022-09-28T02:52:37.580Z,59.45
2022-09-28T02:57:53.923Z,59.11
2022-09-28T03:03:06.109Z,59.53
2022-09-28T03:08:18.080Z,60.55
2022-09-28T03:13:22.008Z,59.97
2022-09-28T03:18:27.288Z,60.83
2022-09-28T03:23:30.879Z,60.46
2022-09-28T03:28:34.444Z,60.08
2022-09-28T03:33:39.639Z,59.28
2022-09-28T03:38:43.194Z,60.21
2022-09-28T03:43:46.772Z,60.46
2022-09-28T03:48:51.949Z,61.52
2022-09-28T03:53:55.492Z,61.56
2022-09-28T03:58:59.059Z,61.58
2022-09-28T04:04:04.337Z,61.97
2022-09-28T04:09:07.895Z,61.85
2022-09-28T04:14:11.449Z,61.77
2022-09-28T04:19:16.661Z,61.94
2022-09-28T04:24:20.400Z,62.01
2022-09-28T04:29:23.970Z,62.50
2022-09-28T04:34:33.156Z,63.13
2022-09-28T04:39:38.888Z,63.08
2022-09-28T04:44:42.446Z,63.28
2022-09-28T04:49:47.644Z,64.06
2022-09-28T04:54:51.170Z,63.94
2022-09-28T04:59:54.699Z,63.89
2022-09-28T05:05:00.034Z,63.80
2022-09-28T05:10:03.589Z,64.48
2022-09-28T05:15:07.891Z,64.76
2022-09-28T05:20:13.194Z,65.19
2022-09-28T05:25:16.861Z,65.01
2022-09-28T05:30:20.383Z,65.09
2022-09-28T05:35:25.585Z,65.28
2022-09-28T05:40:29.210Z,64.67
2022-09-28T05:45:32.903Z,65.31
2022-09-28T05:50:38.138Z,65.06
2022-09-28T05:55:41.663Z,64.98
2022-09-28T06:00:45.379Z,65.28
2022-09-28T06:05:50.982Z,66.09
2022-09-28T06:10:54.531Z,65.58
2022-09-28T06:15:58.040Z,65.36
2022-09-28T06:21:04.293Z,65.35
2022-09-28T06:26:08.030Z,65.05
2022-09-28T06:31:11.857Z,65.30
2022-09-28T06:36:18.041Z,66.00
2022-09-28T06:41:21.590Z,65.30
2022-09-28T06:46:25.327Z,65.43
2022-09-28T06:51:30.514Z,65.72
2022-09-28T06:56:34.059Z,66.09
2022-09-28T07:01:37.634Z,66.59
2022-09-28T07:06:48.834Z,67.06
2022-09-28T07:11:52.361Z,66.40
2022-09-28T07:17:12.294Z,66.98
2022-09-28T07:22:20.198Z,66.95
2022-09-28T07:27:29.017Z,66.80
2022-09-28T07:32:32.694Z,67.00
2022-09-28T07:37:37.890Z,67.83
2022-09-28T07:42:45.497Z,67.77
2022-09-28T07:47:49.193Z,67.57
2022-09-28T07:52:56.649Z,68.61
2022-09-28T07:58:00.740Z,67.89
2022-09-28T08:03:04.808Z,68.08
2022-09-28T08:08:10.254Z,68.56
2022-09-28T08:13:13.794Z,68.34
2022-09-28T08:18:17.365Z,68.40
2022-09-28T08:23:22.595Z,69.46
2022-09-28T08:28:26.300Z,69.11
2022-09-28T08:33:30.153Z,69.42
2022-09-28T08:38:35.522Z,69.46
2022-09-28T08:43:57.571Z,70.59
2022-09-28T08:49:24.079Z,69.77
2022-09-28T08:54:37.613Z,71.05
2022-09-28T08:59:49.999Z,71.21
2022-09-28T09:04:54.904Z,70.36
2022-09-28T09:10:07.724Z,70.84
2022-09-28T09:15:34.701Z,71.54
2022-09-28T09:20:48.058Z,71.65
2022-09-28T09:25:56.634Z,71.77
2022-09-28T09:31:12.705Z,73.07
2022-09-28T09:36:31.654Z,72.34
2022-09-28T09:41:55.088Z,72.15
2022-09-28T09:47:02.338Z,71.95
2022-09-28T09:52:12.054Z,72.83
2022-09-28T09:57:21.172Z,73.62
2022-09-28T10:02:27.660Z,71.99
2022-09-28T10:07:40.353Z,73.09
2022-09-28T10:12:49.825Z,73.54
2022-09-28T10:17:54.502Z,73.61
2022-09-28T10:22:59.827Z,74.16
2022-09-28T10:28:07.669Z,74.22
2022-09-28T10:33:30.106Z,74.18
2022-09-28T10:38:34.876Z,73.54
2022-09-28T10:43:50.692Z,73.76
2022-09-28T10:49:01.836Z,74.12
2022-09-28T10:54:05.584Z,74.22
2022-09-28T10:59:24.990Z,75.48
2022-09-28T11:04:30.058Z,74.34
2022-09-28T11:09:37.147Z,73.99
2022-09-28T11:14:43.921Z,74.35
2022-09-28T11:19:47.470Z,73.71
2022-09-28T11:24:51.373Z,73.96
2022-09-28T11:29:59.067Z,74.29
2022-09-28T11:35:03.521Z,73.83
2022-09-28T11:40:20.961Z,74.54
2022-09-28T11:45:37.783Z,75.06
2022-09-28T11:50:47.558Z,75.06
2022-09-28T11:55:58.668Z,75.55
2022-09-28T12:01:11.448Z,75.58
2022-09-28T12:06:23.006Z,75.22
2022-09-28T12:11:32.724Z,75.22
2022-09-28T12:17:04.959Z,75.60
2022-09-28T12:22:18.988Z,75.32
2022-09-28T12:27:28.698Z,75.92
2022-09-28T12:32:38.986Z,76.10
2022-09-28T12:38:04.050Z,76.30
2022-09-28T12:43:47.514Z,76.94
2022-09-28T12:50:20.214Z,77.07
2022-09-28T12:54:53.079Z,76.74
2022-09-28T13:00:03.625Z,76.60
2022-09-28T13:05:24.924Z,77.95
2022-09-28T13:10:34.469Z,78.51
2022-09-28T13:15:44.560Z,78.16
2022-09-28T13:21:01.434Z,78.62
2022-09-28T13:26:16.148Z,79.02
2022-09-28T13:31:22.913Z,78.15
2022-09-28T13:36:47.238Z,78.42
2022-09-28T13:41:51.509Z,77.57
2022-09-28T13:47:20.927Z,79.03
2022-09-28T13:52:40.165Z,78.91
2022-09-28T13:57:49.799Z,79.20
2022-09-28T14:03:00.356Z,79.53
2022-09-28T14:08:28.060Z,79.93
2022-09-28T14:13:59.728Z,80.18
2022-09-28T14:19:08.720Z,78.92
2022-09-28T14:24:24.100Z,79.42
2022-09-28T14:29:29.240Z,78.54
2022-09-28T14:34:36.167Z,78.27
2022-09-28T14:39:45.982Z,78.07
2022-09-28T14:45:34.402Z,76.56
2022-09-28T14:50:37.974Z,76.09
2022-09-28T14:55:47.779Z,76.20
2022-09-28T15:01:04.374Z,75.92
2022-09-28T15:06:14.786Z,74.72
2022-09-28T15:11:24.370Z,73.41
2022-09-28T15:16:31.653Z,71.70
2022-09-28T15:21:39.469Z,70.30
2022-09-28T15:26:49.420Z,70.46
2022-09-28T15:31:54.583Z,69.19
2022-09-28T15:36:58.945Z,66.98
2022-09-28T15:42:06.008Z,66.38
2022-09-28T15:47:13.327Z,65.45
2022-09-28T15:52:35.091Z,63.50
2022-09-28T15:57:41.373Z,61.36
2022-09-28T16:03:02.243Z,59.64
2022-09-28T16:08:06.786Z,59.54
2022-09-28T16:13:17.082Z,57.55
2022-09-28T16:18:22.305Z,57.07
2022-09-28T16:23:29.299Z,55.92
2022-09-28T16:28:50.626Z,55.72
2022-09-28T16:33:55.695Z,56.15
2022-09-28T16:38:59.234Z,55.69
2022-09-28T16:44:04.496Z,54.18
2022-09-28T16:49:08.517Z,52.96
2022-09-28T16:54:16.718Z,51.99
2022-09-28T16:59:22.758Z,51.94
2022-09-28T17:04:26.838Z,50.96
2022-09-28T17:09:30.380Z,50.90
2022-09-28T17:14:35.533Z,50.18
2022-09-28T17:19:39.056Z,50.31
2022-09-28T17:24:42.597Z,49.59
2022-09-28T17:29:47.781Z,49.30
2022-09-28T17:35:00.669Z,49.31
2022-09-28T17:40:18.583Z,49.45
2022-09-28T17:45:24.944Z,48.79
2022-09-28T17:50:30.819Z,49.45
2022-09-28T17:55:36.403Z,48.40
2022-09-28T18:00:41.585Z,49.98
2022-09-28T18:05:45.730Z,49.57
2022-09-28T18:10:50.570Z,49.69
2022-09-28T18:15:56.467Z,48.62
2022-09-28T18:21:01.554Z,48.68
2022-09-28T18:26:04.670Z,48.49
2022-09-28T18:31:14.745Z,47.90
2022-09-28T18:36:18.419Z,47.87
2022-09-28T18:41:22.008Z,47.28
2022-09-28T18:46:28.006Z,46.07
2022-09-28T18:51:31.749Z,46.66
2022-09-28T18:56:36.204Z,45.91
2022-09-28T19:01:41.865Z,45.33
2022-09-28T19:06:45.648Z,45.15
2022-09-28T19:11:49.295Z,45.97
2022-09-28T19:16:54.472Z,45.31
2022-09-28T19:21:58.312Z,39.69
2022-09-28T19:27:01.895Z,39.04
2022-09-28T19:32:07.107Z,36.39
2022-09-28T19:37:10.655Z,36.40
2022-09-28T19:42:14.224Z,35.81
2022-09-28T19:47:19.395Z,34.72
2022-09-28T19:52:22.940Z,34.93
2022-09-28T19:57:27.591Z,34.60
2022-09-28T20:02:33.245Z,32.55
2022-09-28T20:07:36.855Z,34.95
2022-09-28T20:12:40.595Z,34.91
2022-09-28T20:17:45.767Z,33.16
2022-09-28T20:22:50.025Z,32.58
2022-09-28T20:27:53.636Z,32.77
2022-09-28T20:32:58.823Z,32.12
2022-09-28T20:38:02.387Z,31.85
2022-09-28T20:43:06.631Z,31.80
2022-09-28T20:48:11.804Z,30.92
2022-09-28T20:53:15.313Z,29.68
2022-09-28T20:58:18.896Z,30.34
2022-09-28T21:03:24.168Z,29.54
2022-09-28T21:08:27.691Z,29.50
2022-09-28T21:13:33.676Z,29.08
2022-09-28T21:18:39.516Z,28.00
2022-09-28T21:23:43.259Z,28.01
2022-09-28T21:28:46.813Z,27.70
2022-09-28T21:33:52.121Z,27.29
2022-09-28T21:38:55.794Z,27.13
2022-09-28T21:43:59.547Z,28.37
2022-09-28T21:49:06.455Z,28.30
2022-09-28T21:54:10.185Z,27.33
2022-09-28T21:59:13.741Z,28.81
2022-09-28T22:04:19.126Z,28.56
2022-09-28T22:09:22.829Z,28.58
2022-09-28T22:14:26.392Z,28.83
2022-09-28T22:19:31.598Z,29.49
2022-09-28T22:24:35.210Z,30.37
2022-09-28T22:29:38.729Z,31.63
2022-09-28T22:34:43.927Z,32.45
2022-09-28T22:39:47.497Z,33.57
2022-09-28T22:44:51.030Z,34.94
2022-09-28T22:49:56.208Z,36.81
2022-09-28T22:54:59.738Z,38.05
2022-09-28T23:00:04.191Z,39.19
2022-09-28T23:05:09.047Z,40.13
2022-09-28T23:10:12.566Z,41.56
2022-09-28T23:15:16.271Z,42.19
2022-09-28T23:20:22.193Z,43.61
2022-09-28T23:25:25.756Z,43.74
2022-09-28T23:30:29.304Z,44.79
2022-09-28T23:35:34.628Z,45.69
2022-09-28T23:40:38.192Z,45.88
2022-09-28T23:45:43.825Z,46.76
2022-09-28T23:50:49.004Z,47.09
2022-09-28T23:55:52.837Z,47.27
